Time;durP1;ratioP1;P1;durP2;ratioP2;P2;SDS_P1;SDS_P2;PMS_P1;PMS_P2;Temp;Humidity;BMP_temperature;BMP_pressure;BME280_temperature;BME280_humidity;BME280_pressure;Samples;Min_cycle;Max_cycle;Signal;HPM_P1;HPM_P2
2022/07/10 01:47:31;;;;;;;2.40;2.28;;;;;;;;;;6275767;22;20195;-88
2022/07/10 01:50:28;;;;;;;2.42;2.33;;;;;;;;;;6276675;22;20160;-88
2022/07/10 01:56:13;;;;;;;2.58;2.38;;;;;;;;;;6270389;22;20168;-90
2022/07/10 02:13:49;;;;;;;2.38;2.20;;;;;;;;;;6261137;22;20168;-88
2022/07/10 02:16:35;;;;;;;2.45;2.35;;;;;;;;;;6272583;22;20172;-87
2022/07/10 02:19:03;;;;;;;2.53;2.42;;;;;;;;;;6213558;23;20188;-90
2022/07/10 02:21:33;;;;;;;2.50;2.30;;;;;;;;;;6214897;23;20666;-89
2022/07/10 02:24:14;;;;;;;2.47;2.33;;;;;;;;;;6214492;23;20170;-89
2022/07/10 02:26:44;;;;;;;2.90;2.38;;;;;;;;;;6208352;22;21246;-89
2022/07/10 02:29:23;;;;;;;2.97;2.72;;;;;;;;;;6214649;23;20170;-89
2022/07/10 02:32:08;;;;;;;2.25;2.10;;;;;;;;;;6214122;23;20181;-89
2022/07/10 02:34:52;;;;;;;2.80;2.60;;;;;;;;;;6214714;23;20173;-89
2022/07/10 02:43:40;;;;;;;2.60;2.40;;;;;;;;;;6213631;23;20256;-89
2022/07/10 02:46:12;;;;;;;2.60;2.50;;;;;;;;;;6214381;23;20189;-90
2022/07/10 02:48:44;;;;;;;2.50;2.40;;;;;;;;;;6216846;23;20180;-90
2022/07/10 03:02:59;;;;;;;2.50;2.30;;;;;;;;;;6214291;23;20156;-90
2022/07/10 03:05:29;;;;;;;2.50;2.30;;;;;;;;;;6214144;23;20177;-91
2022/07/10 03:08:13;;;;;;;2.50;2.30;;;;;;;;;;6214237;23;20208;-90
2022/07/10 03:13:35;;;;;;;2.50;2.30;;;;;;;;;;6215004;23;20150;-90
2022/07/10 03:16:06;;;;;;;2.30;2.20;;;;;;;;;;6214245;23;20168;-90
2022/07/10 03:18:49;;;;;;;2.35;2.20;;;;;;;;;;6214593;23;20252;-89
2022/07/10 03:21:20;;;;;;;2.53;2.33;;;;;;;;;;6214983;23;20165;-90
2022/07/10 03:26:51;;;;;;;;;;;;;;;;;;;;;
2022/07/10 03:29:28;;;;;;;2.45;2.30;;;;;;;;;;6214685;23;20153;-91
2022/07/10 03:31:58;;;;;;;2.83;2.63;;;;;;;;;;6214800;23;20169;-90
2022/07/10 03:34:36;;;;;;;2.53;2.42;;;;;;;;;;6214774;23;20169;-90
2022/07/10 03:37:07;;;;;;;2.30;2.20;;;;;;;;;;6214997;23;20260;-89
2022/07/10 03:39:42;;;;;;;2.50;2.30;;;;;;;;;;6214525;23;20327;-90
2022/07/10 03:42:12;;;;;;;2.60;2.40;;;;;;;;;;6214405;23;20184;-91
2022/07/10 03:44:43;;;;;;;2.40;2.20;;;;;;;;;;6214260;23;20173;-90
2022/07/10 03:47:17;;;;;;;2.88;2.50;;;;;;;;;;6213521;23;20200;-92
2022/07/10 03:49:51;;;;;;;2.42;2.33;;;;;;;;;;6214162;23;20168;-91
2022/07/10 03:52:23;;;;;;;2.70;2.50;;;;;;;;;;6214313;23;20244;-90
2022/07/10 03:55:00;;;;;;;2.60;2.40;;;;;;;;;;6214489;23;20204;-90
2022/07/10 04:00:21;;;;;;;2.53;2.33;;;;;;;;;;6214316;23;20156;-90
2022/07/10 04:02:49;;;;;;;2.83;2.63;;;;;;;;;;6213669;23;20259;-91
2022/07/10 04:05:18;;;;;;;2.60;2.40;;;;;;;;;;6214382;23;20203;-91
2022/07/10 04:07:48;;;;;;;2.20;2.10;;;;;;;;;;6214381;23;20193;-91
2022/07/10 04:10:15;;;;;;;2.38;2.17;;;;;;;;;;6214526;23;20231;-91
2022/07/10 04:12:43;;;;;;;2.45;2.30;;;;;;;;;;6214624;23;20244;-91
2022/07/10 04:15:12;;;;;;;2.42;2.33;;;;;;;;;;6214380;23;20223;-90
2022/07/10 04:17:39;;;;;;;2.20;2.00;;;;;;;;;;6214006;23;20193;-91
2022/07/10 04:20:07;;;;;;;2.88;2.67;;;;;;;;;;6215813;23;20174;-91
2022/07/10 04:22:36;;;;;;;2.60;2.40;;;;;;;;;;6216403;23;20253;-91
2022/07/10 04:25:03;;;;;;;2.50;2.30;;;;;;;;;;6216510;23;20193;-90
2022/07/10 04:27:31;;;;;;;2.72;2.50;;;;;;;;;;6215856;23;20681;-91
2022/07/10 04:29:58;;;;;;;2.97;2.53;;;;;;;;;;6216317;23;20203;-90
2022/07/10 04:32:27;;;;;;;3.00;2.67;;;;;;;;;;6216640;23;20177;-90
2022/07/10 04:34:56;;;;;;;2.85;2.65;;;;;;;;;;6216772;23;20173;-91
2022/07/10 04:37:23;;;;;;;2.67;2.47;;;;;;;;;;6219100;23;20260;-91
2022/07/10 04:39:52;;;;;;;2.75;2.55;;;;;;;;;;6216912;23;20173;-92
2022/07/10 04:42:19;;;;;;;2.40;2.30;;;;;;;;;;6216517;23;20200;-92
2022/07/10 04:44:47;;;;;;;2.60;2.40;;;;;;;;;;6216423;23;20169;-91
2022/07/10 04:47:16;;;;;;;2.53;2.42;;;;;;;;;;6216263;23;20189;-91
2022/07/10 04:49:43;;;;;;;2.60;2.40;;;;;;;;;;6216260;23;20173;-91
2022/07/10 04:52:13;;;;;;;2.53;2.33;;;;;;;;;;6216448;23;20173;-92
2022/07/10 04:54:40;;;;;;;2.78;2.58;;;;;;;;;;6216755;23;20173;-92
2022/07/10 04:57:09;;;;;;;2.58;2.40;;;;;;;;;;6217209;23;20379;-91
2022/07/10 04:59:37;;;;;;;2.50;2.30;;;;;;;;;;6218381;23;20173;-90
2022/07/10 05:02:04;;;;;;;2.58;2.38;;;;;;;;;;6216848;23;20180;-90
2022/07/10 05:04:32;;;;;;;2.47;2.38;;;;;;;;;;6216313;23;20229;-91
2022/07/10 05:06:59;;;;;;;2.67;2.20;;;;;;;;;;6215095;23;20190;-90
2022/07/10 05:09:26;;;;;;;2.40;2.30;;;;;;;;;;6215879;23;20197;-91
2022/07/10 05:12:06;;;;;;;2.78;2.58;;;;;;;;;;6216422;23;20173;-91
2022/07/10 05:14:40;;;;;;;2.35;2.15;;;;;;;;;;6216248;23;20172;-92
2022/07/10 05:17:16;;;;;;;2.92;2.60;;;;;;;;;;6216023;23;20191;-92
2022/07/10 05:19:53;;;;;;;2.38;2.20;;;;;;;;;;6216074;23;20169;-91
2022/07/10 05:22:33;;;;;;;2.60;2.40;;;;;;;;;;6216452;23;20200;-92
2022/07/10 05:25:02;;;;;;;2.65;2.45;;;;;;;;;;6215441;23;20224;-91
2022/07/10 05:33:56;;;;;;;2.30;2.20;;;;;;;;;;6184337;23;20213;-91
2022/07/10 05:36:26;;;;;;;2.38;2.20;;;;;;;;;;6185151;23;20248;-91
2022/07/10 05:39:00;;;;;;;2.53;2.33;;;;;;;;;;6185115;23;20197;-91
2022/07/10 05:41:32;;;;;;;2.50;2.30;;;;;;;;;;6185345;23;20170;-91
2022/07/10 05:44:19;;;;;;;;;;;;;;;;;;;;;
2022/07/10 05:46:55;;;;;;;2.17;1.98;;;;;;;;;;6184562;23;20182;-92
2022/07/10 05:52:12;;;;;;;2.72;2.03;;;;;;;;;;6183684;23;20186;-91
2022/07/10 05:54:48;;;;;;;3.05;2.22;;;;;;;;;;6185194;23;20177;-91
2022/07/10 05:57:18;;;;;;;2.15;2.00;;;;;;;;;;6185140;23;20213;-91
2022/07/10 05:59:58;;;;;;;2.30;2.10;;;;;;;;;;6185121;23;20174;-92
2022/07/10 06:02:27;;;;;;;2.10;2.00;;;;;;;;;;6185495;23;20166;-92
2022/07/10 06:05:19;;;;;;;2.70;2.50;;;;;;;;;;6185068;23;20170;-90
2022/07/10 06:07:49;;;;;;;2.00;1.90;;;;;;;;;;6184649;23;20270;-92
2022/07/10 06:10:31;;;;;;;2.40;2.20;;;;;;;;;;6184035;23;20173;-91
2022/07/10 06:15:45;;;;;;;2.05;1.92;;;;;;;;;;6181176;23;20181;-91
2022/07/10 06:18:17;;;;;;;2.33;1.92;;;;;;;;;;6184579;23;20280;-91
2022/07/10 06:20:54;;;;;;;2.30;2.10;;;;;;;;;;6185632;23;20170;-91
2022/07/10 06:23:22;;;;;;;1.92;1.83;;;;;;;;;;6185321;23;20165;-91
2022/07/10 06:25:57;;;;;;;2.30;2.10;;;;;;;;;;6184665;23;20188;-91
2022/07/10 06:28:36;;;;;;;2.28;2.05;;;;;;;;;;6191026;23;20228;-91
2022/07/10 06:31:09;;;;;;;1.85;1.75;;;;;;;;;;6214929;23;20177;-91
2022/07/10 06:33:52;;;;;;;2.15;1.92;;;;;;;;;;6215110;23;20718;-91
2022/07/10 06:39:09;;;;;;;2.13;1.90;;;;;;;;;;6206681;23;20181;-90
2022/07/10 06:44:27;;;;;;;2.05;1.95;;;;;;;;;;6214045;23;20243;-91
2022/07/10 06:49:57;;;;;;;2.10;1.90;;;;;;;;;;6196950;23;20231;-90
2022/07/10 06:55:36;;;;;;;2.08;1.88;;;;;;;;;;6122230;23;20186;-90
2022/07/10 06:58:14;;;;;;;1.88;1.77;;;;;;;;;;6122303;23;20194;-91
2022/07/10 07:03:43;;;;;;;1.83;1.60;;;;;;;;;;6096150;23;20185;-91
2022/07/10 07:11:50;;;;;;;1.60;1.45;;;;;;;;;;6274679;22;20167;-90
2022/07/10 07:23:14;;;;;;;2.20;1.67;;;;;;;;;;6244054;23;20612;-88
2022/07/10 07:25:46;;;;;;;2.55;1.73;;;;;;;;;;6243830;23;20191;-88
2022/07/10 07:28:17;;;;;;;2.33;1.73;;;;;;;;;;6243992;22;20246;-88
2022/07/10 07:30:45;;;;;;;1.85;1.42;;;;;;;;;;6244493;23;20164;-88
2022/07/10 07:33:12;;;;;;;2.58;1.65;;;;;;;;;;6244152;23;20169;-88
2022/07/10 07:41:10;;;;;;;1.75;1.65;;;;;;;;;;6304012;22;20206;-86
2022/07/10 07:43:39;;;;;;;2.33;1.67;;;;;;;;;;6305559;22;20174;-87
2022/07/10 07:46:11;;;;;;;3.95;1.63;;;;;;;;;;6304911;22;20174;-88
2022/07/10 07:48:41;;;;;;;2.60;1.48;;;;;;;;;;6305881;22;20236;-88
2022/07/10 07:51:09;;;;;;;5.38;1.90;;;;;;;;;;6305006;22;20175;-89
2022/07/10 07:53:36;;;;;;;2.42;1.75;;;;;;;;;;6305111;22;20171;-88
2022/07/10 07:56:04;;;;;;;3.65;1.50;;;;;;;;;;6306795;22;20171;-88
2022/07/10 07:58:31;;;;;;;3.28;1.65;;;;;;;;;;6307222;22;20167;-89
2022/07/10 08:01:02;;;;;;;2.75;1.77;;;;;;;;;;6308468;22;20248;-89
2022/07/10 08:03:29;;;;;;;2.97;1.65;;;;;;;;;;6308341;22;20222;-88
2022/07/10 08:05:56;;;;;;;2.47;1.60;;;;;;;;;;6309023;22;20171;-89
2022/07/10 08:08:24;;;;;;;2.22;1.52;;;;;;;;;;6247181;22;20222;-90
2022/07/10 08:10:51;;;;;;;3.33;1.70;;;;;;;;;;6246085;23;20164;-90
2022/07/10 08:13:19;;;;;;;1.60;1.50;;;;;;;;;;6246138;23;20239;-89
2022/07/10 08:15:46;;;;;;;2.00;1.60;;;;;;;;;;6246233;23;20178;-89
2022/07/10 08:56:26;;;;;;;8.13;2.13;;;;;;;;;;6242263;23;20180;-93
2022/07/10 08:58:54;;;;;;;8.32;2.25;;;;;;;;;;6227200;23;20168;-92
2022/07/10 09:01:37;;;;;;;6.05;1.92;;;;;;;;;;6214880;23;20170;-90
2022/07/10 09:04:05;;;;;;;3.75;1.70;;;;;;;;;;6213710;23;20192;-91
2022/07/10 09:06:46;;;;;;;2.22;1.70;;;;;;;;;;6214368;23;20173;-90
2022/07/10 09:09:31;;;;;;;2.83;1.58;;;;;;;;;;6215102;23;20189;-91
2022/07/10 09:12:00;;;;;;;2.05;1.38;;;;;;;;;;6214982;23;20191;-89
2022/07/10 09:14:41;;;;;;;2.75;1.60;;;;;;;;;;6215097;23;20200;-90
2022/07/10 09:17:11;;;;;;;2.10;1.40;;;;;;;;;;6214280;23;20207;-91
2022/07/10 09:19:38;;;;;;;1.98;1.30;;;;;;;;;;6215050;23;20630;-91
2022/07/10 09:22:11;;;;;;;2.45;1.70;;;;;;;;;;6215543;23;20212;-92
2022/07/10 09:24:40;;;;;;;1.80;1.05;;;;;;;;;;6215842;23;20248;-91
2022/07/10 09:27:09;;;;;;;2.78;1.33;;;;;;;;;;6215114;23;20246;-91
2022/07/10 09:29:52;;;;;;;2.33;1.08;;;;;;;;;;6215647;23;20189;-91
2022/07/10 09:37:43;;;;;;;3.17;1.40;;;;;;;;;;6150175;23;20276;-92
2022/07/10 09:40:20;;;;;;;3.60;1.50;;;;;;;;;;6218669;23;20223;-93
2022/07/10 09:42:56;;;;;;;2.60;1.50;;;;;;;;;;6228881;23;20180;-92
2022/07/10 09:45:26;;;;;;;2.15;1.42;;;;;;;;;;6235924;23;20173;-91
2022/07/10 09:50:43;;;;;;;2.53;1.20;;;;;;;;;;6094655;23;20637;-92
2022/07/10 09:53:14;;;;;;;2.53;1.35;;;;;;;;;;6093966;23;20183;-91
2022/07/10 10:02:11;;;;;;;2.92;1.90;;;;;;;;;;6093281;23;20189;-92
2022/07/10 10:04:57;;;;;;;3.47;1.90;;;;;;;;;;6093266;23;20214;-93
2022/07/10 10:07:29;;;;;;;2.85;2.03;;;;;;;;;;6094217;23;20196;-93
2022/07/10 10:10:13;;;;;;;2.60;1.70;;;;;;;;;;6094604;23;20203;-92
2022/07/10 10:15:40;;;;;;;2.45;1.50;;;;;;;;;;6093782;23;20179;-89
2022/07/10 10:21:06;;;;;;;2.05;1.40;;;;;;;;;;6094215;23;20176;-88
2022/07/10 10:26:56;;;;;;;3.35;1.60;;;;;;;;;;6044622;23;20202;-90
2022/07/10 10:35:47;;;;;;;1.40;1.30;;;;;;;;;;6124973;23;20171;-91
2022/07/10 10:48:14;;;;;;;1.73;1.48;;;;;;;;;;6209457;23;20193;-92
2022/07/10 12:37:35;;;;;;;1.50;0.90;;;;;;;;;;6257542;22;20207;-90
2022/07/10 12:40:11;;;;;;;1.38;1.00;;;;;;;;;;6274220;22;20186;-92
2022/07/10 12:42:39;;;;;;;1.77;1.10;;;;;;;;;;6277094;22;20195;-91
2022/07/10 12:45:11;;;;;;;0.80;0.80;;;;;;;;;;6276481;22;20171;-92
2022/07/10 12:47:48;;;;;;;1.52;1.20;;;;;;;;;;6276372;22;20192;-91
2022/07/10 12:50:23;;;;;;;1.65;1.10;;;;;;;;;;6276238;22;20262;-91
2022/07/10 12:53:11;;;;;;;2.30;1.20;;;;;;;;;;6276469;22;20171;-91
2022/07/10 12:55:48;;;;;;;1.90;1.00;;;;;;;;;;6276162;22;20206;-90
2022/07/10 13:01:02;;;;;;;2.00;1.05;;;;;;;;;;6274966;22;20278;-91
2022/07/10 13:03:41;;;;;;;1.67;1.00;;;;;;;;;;6277264;22;20175;-92
2022/07/10 13:09:25;;;;;;;1.15;0.88;;;;;;;;;;6275776;22;20262;-92
2022/07/10 13:17:54;;;;;;;1.63;1.00;;;;;;;;;;6275312;22;20210;-92
2022/07/10 13:20:35;;;;;;;1.30;0.82;;;;;;;;;;6276450;22;20171;-91
2022/07/10 13:23:03;;;;;;;1.63;0.80;;;;;;;;;;6275900;22;20175;-90
2022/07/10 13:45:58;;;;;;;27.80;12.63;;;;;;;;;;6272547;22;20178;-89
2022/07/10 13:52:00;;;;;;;17.92;8.63;;;;;;;;;;6275708;22;20189;-93
2022/07/10 13:55:04;;;;;;;13.05;6.30;;;;;;;;;;6275719;22;20179;-91
2022/07/10 16:13:20;;;;;;;2.88;1.65;;;;;;;;;;6284512;22;20195;-92
2022/07/10 16:15:50;;;;;;;3.15;1.70;;;;;;;;;;6309033;22;20489;-92
2022/07/10 16:18:17;;;;;;;1.77;1.52;;;;;;;;;;6309980;22;20187;-91
2022/07/10 16:20:46;;;;;;;3.00;1.50;;;;;;;;;;6309786;22;20194;-91
2022/07/10 16:23:14;;;;;;;2.90;1.75;;;;;;;;;;6309111;22;20171;-91
2022/07/10 16:26:05;;;;;;;2.22;1.55;;;;;;;;;;6308302;22;20171;-91
2022/07/10 21:21:40;;;;;;;1.30;1.10;;;;;;;;;;6147238;23;20174;-90
2022/07/10 21:24:11;;;;;;;2.97;1.33;;;;;;;;;;6152745;23;20238;-89
2022/07/10 21:27:01;;;;;;;1.88;1.35;;;;;;;;;;6153422;23;20178;-89
2022/07/10 21:29:37;;;;;;;1.42;1.10;;;;;;;;;;6285108;22;20252;-89
2022/07/10 21:41:11;;;;;;;1.95;1.50;;;;;;;;;;6294271;22;20182;-90
2022/07/10 21:50:11;;;;;;;1.35;1.25;;;;;;;;;;6182532;23;20196;-89
2022/07/10 21:55:52;;;;;;;3.05;1.30;;;;;;;;;;6152930;23;20179;-89
2022/07/10 21:58:32;;;;;;;2.15;1.20;;;;;;;;;;6153060;23;20194;-89
2022/07/10 22:01:11;;;;;;;1.48;1.27;;;;;;;;;;6153338;23;20174;-92
2022/07/10 22:03:46;;;;;;;3.00;1.20;;;;;;;;;;6153110;23;20177;-92
2022/07/10 22:09:40;;;;;;;1.48;1.10;;;;;;;;;;6275569;22;20199;-92
2022/07/10 22:12:18;;;;;;;2.65;1.30;;;;;;;;;;6276493;22;20167;-92
2022/07/10 22:14:49;;;;;;;2.40;0.93;;;;;;;;;;6276191;22;20194;-92
2022/07/10 22:17:19;;;;;;;1.30;1.20;;;;;;;;;;6274641;22;20172;-91
2022/07/10 22:22:53;;;;;;;1.48;0.98;;;;;;;;;;6245791;23;20140;-92
2022/07/10 22:28:41;;;;;;;1.10;1.00;;;;;;;;;;6163007;23;20190;-91
2022/07/10 22:31:22;;;;;;;1.25;1.13;;;;;;;;;;6152374;23;20273;-92
2022/07/10 22:37:06;;;;;;;1.08;1.00;;;;;;;;;;6132954;23;20205;-92
2022/07/10 22:42:17;;;;;;;1.48;1.23;;;;;;;;;;6063581;23;20179;-91
2022/07/10 22:47:57;;;;;;;2.80;1.17;;;;;;;;;;6030786;23;20692;-92
2022/07/10 22:59:44;;;;;;;1.70;1.17;;;;;;;;;;6063184;23;20211;-92
2022/07/10 23:02:27;;;;;;;1.73;1.02;;;;;;;;;;6080044;23;20250;-91
2022/07/10 23:08:21;;;;;;;1.67;1.05;;;;;;;;;;6003115;23;20197;-92
2022/07/10 23:48:09;;;;;;;1.48;1.20;;;;;;;;;;6230463;22;20199;-89
2022/07/10 23:50:43;;;;;;;1.20;1.00;;;;;;;;;;6278704;22;20184;-91
2022/07/10 23:53:16;;;;;;;1.10;1.00;;;;;;;;;;6275826;22;20258;-91
2022/07/10 23:55:59;;;;;;;1.83;1.00;;;;;;;;;;6276686;22;20171;-91
2022/07/10 23:58:48;;;;;;;;;;;;;;;;;;;;;
